Time;durP1;ratioP1;P1;durP2;ratioP2;P2;SDS_P1;SDS_P2;PMS_P1;PMS_P2;Temp;Humidity;BMP_temperature;BMP_pressure;BME280_temperature;BME280_humidity;BME280_pressure;Samples;Min_cycle;Max_cycle;Signal;HPM_P1;HPM_P2
2024/02/16 00:00:25;;;;;;;49.60;32.60;;;;;;;8.92;100.00;101180.48;103766;1298;22929;-64
2024/02/16 00:02:51;;;;;;;47.30;32.30;;;;;;;8.90;100.00;101182.55;103794;1307;24186;-60
2024/02/16 00:05:18;;;;;;;43.90;31.50;;;;;;;8.88;100.00;101183.06;103733;1306;24814;-61
2024/02/16 00:07:43;;;;;;;50.50;32.50;;;;;;;8.84;100.00;101180.66;103752;1297;22555;-60
2024/02/16 00:10:14;;;;;;;55.20;33.60;;;;;;;8.83;100.00;101178.62;103874;1307;22710;-60
2024/02/16 00:12:41;;;;;;;47.30;33.20;;;;;;;8.81;100.00;101179.31;104502;1308;22565;-58
2024/02/16 00:15:08;;;;;;;49.80;32.80;;;;;;;8.79;100.00;101177.26;105908;1289;354319;-60
2024/02/16 00:17:33;;;;;;;45.40;33.50;;;;;;;8.79;100.00;101176.56;103846;1304;22590;-60
2024/02/16 00:19:59;;;;;;;46.10;33.10;;;;;;;8.79;100.00;101175.70;103823;1309;22581;-60
2024/02/16 00:22:27;;;;;;;51.00;32.80;;;;;;;8.78;100.00;101181.71;103885;1304;22619;-61
2024/02/16 00:24:53;;;;;;;51.30;33.00;;;;;;;8.78;100.00;101180.52;104518;1309;22573;-61
2024/02/16 00:27:19;;;;;;;48.40;33.00;;;;;;;8.79;100.00;101187.56;103885;1304;22619;-60
2024/02/16 00:29:46;;;;;;;48.10;32.70;;;;;;;8.79;100.00;101191.34;103838;1309;22688;-57
2024/02/16 00:32:12;;;;;;;54.10;34.70;;;;;;;8.79;100.00;101192.20;103792;1304;22556;-60
2024/02/16 00:34:41;;;;;;;51.70;34.60;;;;;;;8.79;100.00;101189.96;103703;1310;22561;-58
2024/02/16 00:37:11;;;;;;;49.00;33.00;;;;;;;8.79;100.00;101193.23;103881;1291;22600;-58
2024/02/16 00:39:41;;;;;;;49.50;32.30;;;;;;;8.79;100.00;101192.89;103934;1309;22857;-59
2024/02/16 00:42:07;;;;;;;58.80;34.70;;;;;;;8.79;100.00;101192.03;103843;1304;25403;-60
2024/02/16 00:44:33;;;;;;;62.70;35.30;;;;;;;8.80;100.00;101192.20;103914;1310;25620;-59
2024/02/16 00:46:58;;;;;;;53.60;33.30;;;;;;;8.78;100.00;101190.31;103875;1296;22569;-58
2024/02/16 00:49:24;;;;;;;47.50;32.30;;;;;;;8.78;100.00;101186.70;103764;1295;23751;-58
2024/02/16 00:51:50;;;;;;;53.70;33.10;;;;;;;8.77;100.00;101187.05;103970;1302;22582;-60
2024/02/16 00:54:17;;;;;;;47.70;31.80;;;;;;;8.75;100.00;101184.30;103954;1304;22581;-59
2024/02/16 00:56:42;;;;;;;54.60;34.20;;;;;;;8.73;100.00;101181.55;103944;1291;25377;-58
2024/02/16 00:59:09;;;;;;;54.50;33.50;;;;;;;8.71;100.00;101180.68;104022;1295;22549;-60
2024/02/16 01:01:36;;;;;;;52.30;33.80;;;;;;;8.70;100.00;101181.52;105611;1307;22575;-59
2024/02/16 01:04:02;;;;;;;57.20;32.60;;;;;;;8.70;100.00;101179.81;105410;1308;22570;-59
2024/02/16 01:06:28;;;;;;;52.70;33.20;;;;;;;8.69;100.00;101183.77;103947;1291;24271;-58
2024/02/16 01:08:54;;;;;;;53.70;32.40;;;;;;;8.68;100.00;101181.52;103942;1294;22562;-58
2024/02/16 01:11:19;;;;;;;50.50;32.80;;;;;;;8.66;100.00;101181.36;103919;1307;24323;-60
2024/02/16 01:13:48;;;;;;;47.50;30.80;;;;;;;8.64;100.00;101183.25;103961;1294;22565;-60
2024/02/16 01:16:15;;;;;;;48.10;31.30;;;;;;;8.61;100.00;101184.11;103959;1288;24820;-59
2024/02/16 01:18:40;;;;;;;45.40;31.40;;;;;;;8.60;100.00;101181.18;105575;1304;22648;-60
2024/02/16 01:21:06;;;;;;;50.20;30.30;;;;;;;8.59;100.00;101178.27;103811;1287;25356;-59
2024/02/16 01:23:32;;;;;;;43.70;31.10;;;;;;;8.59;100.00;101179.80;103861;1310;22654;-59
2024/02/16 01:25:58;;;;;;;50.80;31.60;;;;;;;8.58;100.00;101179.12;103628;1294;23922;-58
2024/02/16 01:28:23;;;;;;;45.00;30.20;;;;;;;8.58;100.00;101176.37;103922;1291;24470;-59
2024/02/16 01:30:50;;;;;;;42.60;30.00;;;;;;;8.57;100.00;101172.08;103888;1310;25716;-60
2024/02/16 01:33:16;;;;;;;46.00;30.40;;;;;;;8.56;100.00;101167.43;103955;1298;22818;-60
2024/02/16 01:35:41;;;;;;;41.00;30.10;;;;;;;8.55;100.00;101161.41;103924;1309;22619;-58
2024/02/16 01:38:07;;;;;;;51.80;31.40;;;;;;;8.54;100.00;101159.35;103792;1287;22570;-58
2024/02/16 01:40:35;;;;;;;41.00;29.30;;;;;;;8.52;100.00;101160.02;103702;1287;22577;-60
2024/02/16 01:43:00;;;;;;;47.70;30.90;;;;;;;8.51;100.00;101153.84;103721;1310;25539;-60
2024/02/16 01:45:26;;;;;;;46.90;29.50;;;;;;;8.50;100.00;101154.36;103775;1310;25885;-58
2024/02/16 01:47:53;;;;;;;46.50;27.90;;;;;;;8.47;100.00;101152.46;103852;1296;22555;-57
2024/02/16 01:50:19;;;;;;;47.50;30.40;;;;;;;8.43;100.00;101152.29;103887;1307;24240;-59
2024/02/16 01:52:46;;;;;;;42.60;28.90;;;;;;;8.40;100.00;101153.66;106653;1309;26535;-60
2024/02/16 01:55:12;;;;;;;43.90;29.90;;;;;;;8.37;100.00;101160.18;103926;1308;23054;-58
2024/02/16 01:57:40;;;;;;;44.10;27.40;;;;;;;8.35;100.00;101159.66;103863;1291;22589;-58
2024/02/16 02:00:07;;;;;;;46.00;29.90;;;;;;;8.34;100.00;101162.92;107233;1303;22237;-60
2024/02/16 02:02:34;;;;;;;42.40;28.40;;;;;;;8.32;100.00;101163.44;103686;1307;24407;-60
2024/02/16 02:05:00;;;;;;;49.10;28.30;;;;;;;8.31;100.00;101168.91;103632;1310;25481;-59
2024/02/16 02:07:27;;;;;;;42.40;27.10;;;;;;;8.30;100.00;101165.66;103793;1289;28122;-59
2024/02/16 02:09:52;;;;;;;;;;;;;;;8.29;100.00;101167.54;103870;1310;22548;-60
2024/02/16 02:12:18;;;;;;;40.60;27.90;;;;;;;8.27;100.00;101166.17;103848;1309;22575;-60
2024/02/16 02:14:44;;;;;;;42.30;27.80;;;;;;;8.25;100.00;101167.37;103962;1310;25352;-60
2024/02/16 02:17:13;;;;;;;46.50;29.80;;;;;;;8.23;100.00;101169.94;107397;1289;22330;-60
2024/02/16 02:19:39;;;;;;;53.60;29.90;;;;;;;8.22;100.00;101167.88;105261;1290;22595;-60
2024/02/16 02:22:08;;;;;;;48.00;29.90;;;;;;;8.21;100.00;101166.67;103692;1304;24283;-60
2024/02/16 02:24:34;;;;;;;43.00;27.70;;;;;;;8.19;100.00;101161.35;103746;1310;22730;-59
2024/02/16 02:26:59;;;;;;;43.60;29.00;;;;;;;8.16;100.00;101159.62;103864;1310;22581;-59
2024/02/16 02:29:25;;;;;;;43.70;28.70;;;;;;;8.13;100.00;101158.41;103851;1292;25335;-59
2024/02/16 02:31:50;;;;;;;45.70;27.90;;;;;;;8.10;100.00;101156.34;103855;1308;24288;-60
2024/02/16 02:34:16;;;;;;;46.30;28.30;;;;;;;8.08;100.00;101158.73;103949;1310;22565;-59
2024/02/16 02:36:41;;;;;;;46.80;28.20;;;;;;;8.09;100.00;101159.94;103726;1310;22583;-57
2024/02/16 02:39:07;;;;;;;46.90;29.60;;;;;;;8.09;100.00;101157.88;103811;1291;22595;-60
2024/02/16 02:41:33;;;;;;;42.60;27.20;;;;;;;8.09;100.00;101157.88;103731;1303;22561;-60
2024/02/16 02:43:58;;;;;;;45.10;27.40;;;;;;;8.07;100.00;101155.46;103848;1310;24302;-57
2024/02/16 02:46:24;;;;;;;43.60;27.70;;;;;;;8.05;100.00;101153.23;103651;1291;23659;-60
2024/02/16 02:48:51;;;;;;;45.40;27.80;;;;;;;8.05;100.00;101151.86;103849;1292;22548;-59
2024/02/16 02:51:16;;;;;;;38.30;27.30;;;;;;;8.05;100.00;101147.91;103882;1304;22674;-60
2024/02/16 02:53:43;;;;;;;38.70;27.70;;;;;;;8.07;100.00;101150.48;103944;1310;22585;-61
2024/02/16 02:56:08;;;;;;;39.60;27.80;;;;;;;8.07;100.00;101148.09;103884;1310;22601;-60
2024/02/16 02:58:34;;;;;;;42.20;28.30;;;;;;;8.07;100.00;101147.23;103853;1296;22712;-59
2024/02/16 03:01:00;;;;;;;45.00;29.60;;;;;;;8.07;100.00;101144.65;103936;1309;22590;-59
2024/02/16 03:03:25;;;;;;;44.20;28.80;;;;;;;8.08;100.00;101145.00;103935;1302;22567;-58
2024/02/16 03:05:51;;;;;;;41.40;26.70;;;;;;;8.08;100.00;101144.83;103918;1294;22563;-59
2024/02/16 03:08:17;;;;;;;43.60;27.90;;;;;;;8.09;100.00;101143.45;103884;1286;22620;-59
2024/02/16 03:10:44;;;;;;;41.30;28.70;;;;;;;8.10;100.00;101143.11;103874;1310;25519;-58
2024/02/16 03:13:12;;;;;;;39.20;26.60;;;;;;;8.10;100.00;101138.99;103564;1310;22593;-58
2024/02/16 03:15:38;;;;;;;38.80;27.20;;;;;;;8.11;100.00;101141.40;107034;1307;22258;-60
2024/02/16 03:18:08;;;;;;;42.50;25.90;;;;;;;8.12;100.00;101140.55;106391;1310;22695;-59
2024/02/16 03:20:35;;;;;;;38.00;26.60;;;;;;;8.13;100.00;101139.86;104226;1290;22577;-58
2024/02/16 03:23:00;;;;;;;;;;;;;;;8.15;100.00;101135.58;105284;1312;22659;-60
2024/02/16 03:25:26;;;;;;;44.40;27.50;;;;;;;8.16;100.00;101138.84;103520;1312;25406;-58
2024/02/16 03:27:53;;;;;;;42.20;25.80;;;;;;;8.18;100.00;101140.91;103603;1310;22610;-58
2024/02/16 03:30:19;;;;;;;;;;;;;;;8.18;100.00;101137.64;103692;1310;22694;-60
2024/02/16 03:33:04;;;;;;;42.70;27.40;;;;;;;8.17;100.00;101134.37;107176;1312;22410;-60
2024/02/16 03:35:30;;;;;;;38.90;26.70;;;;;;;8.15;100.00;101134.02;105759;1305;23292;-60
2024/02/16 03:37:56;;;;;;;37.00;27.20;;;;;;;8.13;100.00;101135.90;103747;1311;22960;-58
2024/02/16 03:40:25;;;;;;;42.50;27.70;;;;;;;8.12;100.00;101133.85;103680;1293;22586;-59
2024/02/16 03:42:51;;;;;;;42.00;27.70;;;;;;;8.11;100.00;101138.48;103627;1309;22772;-59
2024/02/16 03:45:17;;;;;;;43.40;26.30;;;;;;;8.09;100.00;101135.04;103674;1310;22595;-59
2024/02/16 03:47:43;;;;;;;35.90;26.70;;;;;;;8.07;100.00;101137.44;103666;1306;22746;-58
2024/02/16 03:50:10;;;;;;;44.50;26.60;;;;;;;8.05;100.00;101142.23;103787;1294;24416;-59
2024/02/16 03:52:35;;;;;;;52.10;29.10;;;;;;;8.04;100.00;101141.89;104525;1311;22564;-58
2024/02/16 03:55:01;;;;;;;39.30;28.40;;;;;;;8.02;100.00;101136.39;103733;1297;24401;-60
2024/02/16 03:57:26;;;;;;;42.00;28.80;;;;;;;8.01;100.00;101134.15;103601;1310;23104;-58
2024/02/16 03:59:52;;;;;;;44.70;29.30;;;;;;;8.00;100.00;101133.13;103619;1292;25362;-59
2024/02/16 04:02:18;;;;;;;43.70;29.40;;;;;;;7.98;100.00;101134.84;103516;1306;22579;-60
2024/02/16 04:04:44;;;;;;;45.90;30.20;;;;;;;7.96;100.00;101136.89;103680;1307;22956;-60
2024/02/16 04:07:10;;;;;;;59.90;30.30;;;;;;;7.94;100.00;101135.00;103656;1306;26763;-59
2024/02/16 04:09:36;;;;;;;42.80;28.80;;;;;;;7.91;100.00;101135.50;103630;1298;22499;-59
2024/02/16 04:12:03;;;;;;;40.10;27.50;;;;;;;7.89;100.00;101134.46;103621;1298;24498;-59
2024/02/16 04:14:29;;;;;;;41.70;28.60;;;;;;;7.88;100.00;101138.58;107390;1309;22287;-60
2024/02/16 04:16:57;;;;;;;40.30;26.40;;;;;;;7.86;100.00;101134.11;107417;1309;22348;-58
2024/02/16 04:19:26;;;;;;;39.30;27.60;;;;;;;7.85;100.00;101131.53;107238;1307;23358;-60
2024/02/16 04:21:52;;;;;;;39.30;26.80;;;;;;;7.85;100.00;101126.73;107373;1291;23487;-58
2024/02/16 04:24:18;;;;;;;40.80;27.90;;;;;;;7.84;100.00;101130.50;107324;1309;25545;-59
2024/02/16 04:26:44;;;;;;;37.70;26.50;;;;;;;7.84;100.00;101131.36;103748;1309;22737;-60
2024/02/16 04:29:11;;;;;;;40.70;26.90;;;;;;;7.83;100.00;101127.06;107442;1309;22145;-61
2024/02/16 04:31:40;;;;;;;47.50;27.60;;;;;;;7.83;100.00;101122.77;107488;1292;22789;-59
2024/02/16 04:34:05;;;;;;;37.80;26.00;;;;;;;7.81;100.00;101124.65;107485;1310;23591;-61
2024/02/16 04:36:31;;;;;;;36.80;26.00;;;;;;;7.79;100.00;101126.39;107393;1305;22994;-61
2024/02/16 04:38:57;;;;;;;42.20;26.40;;;;;;;7.79;100.00;101126.56;107268;1310;22261;-59
2024/02/16 04:41:22;;;;;;;38.30;25.60;;;;;;;7.79;100.00;101126.05;107385;1291;22391;-61
2024/02/16 04:43:50;;;;;;;36.50;25.70;;;;;;;7.77;100.00;101122.77;107434;1305;23475;-60
2024/02/16 04:46:18;;;;;;;38.60;27.10;;;;;;;7.76;100.00;101117.11;107414;1310;22379;-60
2024/02/16 04:48:44;;;;;;;37.30;25.70;;;;;;;7.75;100.00;101117.80;107426;1305;22322;-60
2024/02/16 04:51:12;;;;;;;39.30;26.20;;;;;;;7.72;100.00;101115.55;107426;1291;23132;-60
2024/02/16 04:53:38;;;;;;;38.60;27.90;;;;;;;7.68;100.00;101110.56;107417;1310;22962;-61
2024/02/16 04:56:04;;;;;;;38.30;26.00;;;;;;;7.65;100.00;101110.38;107216;1305;22273;-59
2024/02/16 04:58:30;;;;;;;39.30;26.40;;;;;;;7.62;100.00;101114.31;107472;1309;22273;-60
2024/02/16 05:00:56;;;;;;;42.80;26.40;;;;;;;7.58;100.00;101115.48;107431;1290;23169;-60
2024/02/16 05:03:22;;;;;;;38.70;27.30;;;;;;;7.54;100.00;101116.34;107486;1295;22328;-59
2024/02/16 05:05:48;;;;;;;42.10;26.70;;;;;;;7.51;100.00;101111.35;107456;1309;22242;-60
2024/02/16 05:08:14;;;;;;;34.70;26.40;;;;;;;7.47;100.00;101106.18;107293;1304;22845;-60
2024/02/16 05:10:40;;;;;;;35.20;25.00;;;;;;;7.42;100.00;101105.64;107190;1289;22255;-59
2024/02/16 05:13:06;;;;;;;36.30;25.10;;;;;;;7.37;100.00;101108.02;107442;1301;22255;-61
2024/02/16 05:15:31;;;;;;;34.70;24.70;;;;;;;7.32;100.00;101107.14;107384;1309;22359;-60
2024/02/16 05:17:57;;;;;;;37.80;24.70;;;;;;;7.29;100.00;101103.52;107433;1303;22268;-60
2024/02/16 05:20:23;;;;;;;37.50;25.90;;;;;;;7.25;100.00;101103.02;107219;1310;22928;-58
2024/02/16 05:22:49;;;;;;;40.20;26.10;;;;;;;7.22;100.00;101104.88;107319;1290;23176;-60
2024/02/16 05:25:18;;;;;;;43.40;25.20;;;;;;;7.19;100.00;101106.07;107318;1308;23028;-61
2024/02/16 05:27:45;;;;;;;36.30;25.70;;;;;;;7.16;100.00;101106.22;107287;1310;23345;-59
2024/02/16 05:30:15;;;;;;;35.10;24.30;;;;;;;7.12;100.00;101104.65;107336;1310;22994;-61
2024/02/16 05:32:42;;;;;;;36.80;24.80;;;;;;;7.10;100.00;101103.77;107398;1291;23054;-61
2024/02/16 05:35:55;;;;;;;;;;;;;;;7.05;100.00;101103.58;107492;1301;23086;-60
2024/02/16 05:38:01;;;;;;;36.30;24.10;;;;;;;7.00;100.00;101102.85;107385;1304;23203;-60
2024/02/16 05:40:30;;;;;;;35.20;23.90;;;;;;;6.95;100.00;101103.85;107278;1305;22273;-57
2024/02/16 05:43:00;;;;;;;38.60;25.20;;;;;;;6.90;100.00;101106.56;107337;1290;22258;-59
2024/02/16 05:45:26;;;;;;;34.50;23.20;;;;;;;6.87;100.00;101109.80;107296;1309;22940;-60
2024/02/16 05:47:52;;;;;;;41.80;26.80;;;;;;;6.83;100.00;101112.16;107308;1296;22710;-60
2024/02/16 05:50:27;;;;;;;36.50;24.60;;;;;;;6.81;100.00;101113.86;107296;1309;22280;-60
2024/02/16 05:52:53;;;;;;;40.80;26.20;;;;;;;6.79;100.00;101113.67;107354;1291;22256;-61
2024/02/16 05:55:18;;;;;;;36.70;25.40;;;;;;;6.78;100.00;101112.98;107431;1305;22991;-60
2024/02/16 05:57:44;;;;;;;38.90;25.80;;;;;;;6.75;100.00;101107.16;107423;1310;22408;-60
2024/02/16 06:00:10;;;;;;;40.20;25.30;;;;;;;6.73;100.00;101107.15;107410;1295;22244;-60
2024/02/16 06:02:36;;;;;;;42.00;25.90;;;;;;;6.70;100.00;101107.13;107346;1288;22240;-61
2024/02/16 06:05:03;;;;;;;36.20;24.70;;;;;;;6.67;100.00;101114.13;107168;1308;22370;-61
2024/02/16 06:07:29;;;;;;;38.10;25.50;;;;;;;6.67;100.00;101115.84;107377;1304;22299;-59
2024/02/16 06:09:56;;;;;;;37.90;24.70;;;;;;;6.66;100.00;101120.62;107329;1306;22251;-61
2024/02/16 06:12:22;;;;;;;37.30;24.80;;;;;;;6.62;100.00;101124.70;107201;1295;22354;-60
2024/02/16 06:15:05;;;;;;;38.20;24.80;;;;;;;6.58;100.00;101121.42;106785;1310;22568;-60
2024/02/16 06:17:31;;;;;;;38.10;26.80;;;;;;;6.53;100.00;101121.55;107262;1310;22512;-61
2024/02/16 06:19:57;;;;;;;36.50;25.80;;;;;;;6.52;100.00;101121.19;107382;1304;22376;-60
2024/02/16 06:22:23;;;;;;;37.70;27.30;;;;;;;6.53;100.00;101122.23;107403;1289;22437;-61
2024/02/16 06:24:58;;;;;;;35.30;26.00;;;;;;;6.57;100.00;101119.01;107403;1310;23304;-59
2024/02/16 06:27:24;;;;;;;38.80;25.80;;;;;;;6.58;100.00;101119.36;107286;1291;22266;-60
2024/02/16 06:29:49;;;;;;;40.10;25.20;;;;;;;6.58;100.00;101122.63;104916;1309;25456;-59
2024/02/16 06:32:16;;;;;;;35.70;25.80;;;;;;;6.58;100.00;101114.58;104881;1289;22742;-60
2024/02/16 06:34:43;;;;;;;44.70;26.40;;;;;;;6.57;100.00;101112.16;103868;1309;22589;-58
2024/02/16 06:37:08;;;;;;;42.40;27.30;;;;;;;6.58;100.00;101116.11;106702;1304;22704;-60
2024/02/16 06:39:34;;;;;;;42.80;28.10;;;;;;;6.57;100.00;101113.36;103897;1310;24294;-58
2024/02/16 06:42:00;;;;;;;41.90;27.80;;;;;;;6.58;100.00;101117.48;103708;1310;25329;-59
2024/02/16 06:44:25;;;;;;;41.10;27.10;;;;;;;6.59;100.00;101120.75;103645;1294;22571;-58
2024/02/16 06:46:51;;;;;;;41.70;27.90;;;;;;;6.60;100.00;101118.88;103906;1299;22573;-60
2024/02/16 06:49:17;;;;;;;41.00;27.10;;;;;;;6.63;100.00;101116.16;103922;1305;22702;-59
2024/02/16 06:51:44;;;;;;;43.50;28.20;;;;;;;6.67;100.00;101120.30;103940;1310;22566;-60
2024/02/16 06:54:10;;;;;;;43.90;27.40;;;;;;;6.70;100.00;101117.06;103881;1296;22557;-59
2024/02/16 06:56:36;;;;;;;42.70;28.10;;;;;;;6.73;100.00;101117.95;103861;1304;25021;-56
2024/02/16 06:59:02;;;;;;;39.50;27.30;;;;;;;6.76;100.00;101116.41;106844;1295;25353;-60
2024/02/16 07:01:28;;;;;;;40.50;26.80;;;;;;;6.82;100.00;101117.13;103916;1308;22583;-58
2024/02/16 07:03:54;;;;;;;37.70;27.50;;;;;;;6.88;100.00;101119.73;103855;1291;22557;-60
2024/02/16 07:06:20;;;;;;;42.40;27.20;;;;;;;6.95;100.00;101121.33;103898;1305;22558;-59
2024/02/16 07:08:46;;;;;;;40.90;27.30;;;;;;;7.04;100.00;101115.91;105023;1295;23954;-60
2024/02/16 07:11:12;;;;;;;36.60;26.10;;;;;;;7.17;100.00;101116.69;103861;1310;26906;-59
2024/02/16 07:13:44;;;;;;;37.40;26.40;;;;;;;7.31;100.00;101112.80;103797;1290;24294;-60
2024/02/16 07:16:10;;;;;;;36.70;26.50;;;;;;;7.47;100.00;101110.98;103750;1303;22569;-59
2024/02/16 07:18:36;;;;;;;34.70;24.70;;;;;;;7.59;100.00;101106.06;103747;1288;25596;-60
2024/02/16 07:21:02;;;;;;;36.60;25.80;;;;;;;7.68;100.00;101099.92;103667;1310;22835;-59
2024/02/16 07:23:28;;;;;;;36.00;24.50;;;;;;;7.78;100.00;101098.23;103697;1298;25101;-57
2024/02/16 07:25:58;;;;;;;33.50;23.60;;;;;;;7.88;100.00;101100.47;103745;1310;22674;-59
2024/02/16 07:28:24;;;;;;;32.00;23.00;;;;;;;8.02;100.00;101097.94;103932;1309;23814;-60
2024/02/16 07:30:53;;;;;;;31.20;22.30;;;;;;;8.19;100.00;101094.02;104248;1310;25673;-60
2024/02/16 07:33:19;;;;;;;29.00;21.70;;;;;;;8.32;100.00;101092.49;103849;1309;22626;-59
2024/02/16 07:35:45;;;;;;;25.60;20.20;;;;;;;8.40;100.00;101094.73;103766;1302;25436;-58
2024/02/16 07:38:11;;;;;;;30.80;21.90;;;;;;;8.41;100.00;101092.50;103831;1310;23536;-59
2024/02/16 07:40:36;;;;;;;26.00;20.10;;;;;;;8.61;100.00;101095.94;105257;1310;26472;-60
2024/02/16 07:43:03;;;;;;;28.50;19.60;;;;;;;8.97;100.00;101094.16;103639;1310;23879;-60
2024/02/16 07:45:29;;;;;;;27.50;19.70;;;;;;;9.23;100.00;101092.04;107409;1291;22266;-61
2024/02/16 07:48:07;;;;;;;22.10;17.30;;;;;;;9.45;100.00;101087.30;107463;1310;22929;-61
2024/02/16 07:50:33;;;;;;;25.30;18.00;;;;;;;9.58;100.00;101086.38;107445;1310;22812;-59
2024/02/16 07:53:02;;;;;;;21.10;17.10;;;;;;;9.53;100.00;101088.98;107412;1309;22309;-61
2024/02/16 07:55:28;;;;;;;21.80;16.70;;;;;;;9.52;100.00;101090.20;106039;1290;22573;-60
2024/02/16 07:57:53;;;;;;;22.40;17.00;;;;;;;9.51;100.00;101085.39;103861;1310;24247;-60
2024/02/16 08:00:19;;;;;;;21.50;16.90;;;;;;;9.56;100.00;101083.30;103788;1307;24284;-60
2024/02/16 08:02:45;;;;;;;22.20;17.70;;;;;;;9.67;99.89;101083.25;103735;1310;22595;-57
2024/02/16 08:05:12;;;;;;;22.00;16.90;;;;;;;9.86;100.00;101089.67;103606;1303;25491;-59
2024/02/16 08:07:48;;;;;;;20.90;15.00;;;;;;;9.96;97.39;101084.96;107398;1309;22312;-59
2024/02/16 08:10:44;;;;;;;19.50;15.20;;;;;;;10.13;96.82;101085.02;107403;1296;22951;-60
2024/02/16 08:13:16;;;;;;;20.90;16.30;;;;;;;10.15;96.10;101083.12;107261;1309;23405;-61
2024/02/16 08:15:41;;;;;;;19.00;15.60;;;;;;;10.16;98.05;101083.80;104317;1292;22722;-61
2024/02/16 08:18:07;;;;;;;20.00;16.80;;;;;;;10.27;98.73;101085.31;103862;1310;22799;-59
2024/02/16 08:20:32;;;;;;;19.10;15.20;;;;;;;10.37;98.57;101085.92;103847;1310;25414;-61
2024/02/16 08:22:59;;;;;;;19.40;16.40;;;;;;;10.56;99.58;101082.13;103858;1296;24360;-61
2024/02/16 08:25:24;;;;;;;20.90;15.70;;;;;;;10.75;98.68;101079.20;103851;1292;22610;-61
2024/02/16 08:27:50;;;;;;;21.00;14.60;;;;;;;10.81;97.96;101076.91;103850;1302;22651;-60
2024/02/16 08:30:16;;;;;;;18.40;14.30;;;;;;;10.81;97.41;101077.77;103899;1295;23748;-61
2024/02/16 08:32:42;;;;;;;17.50;13.70;;;;;;;10.95;99.26;101078.30;103786;1310;22556;-61
2024/02/16 08:35:08;;;;;;;17.10;14.10;;;;;;;11.15;98.39;101081.36;103778;1291;22573;-60
2024/02/16 08:37:34;;;;;;;19.10;14.30;;;;;;;11.18;99.08;101080.47;103837;1310;24185;-58
2024/02/16 08:40:01;;;;;;;19.40;14.30;;;;;;;11.22;97.51;101082.67;103638;1309;22578;-61
2024/02/16 08:42:27;;;;;;;18.80;13.90;;;;;;;11.27;94.89;101078.29;107219;1309;22266;-60
2024/02/16 08:44:52;;;;;;;16.70;13.60;;;;;;;11.55;94.98;101078.11;105483;1302;25431;-60
2024/02/16 08:47:19;;;;;;;16.20;13.40;;;;;;;11.95;97.17;101074.31;103647;1302;22582;-60
2024/02/16 08:49:52;;;;;;;18.10;12.50;;;;;;;12.11;93.17;101078.37;103534;1310;22698;-59
2024/02/16 08:52:17;;;;;;;17.10;14.20;;;;;;;12.17;93.51;101077.44;103854;1307;22793;-58
2024/02/16 08:54:43;;;;;;;17.30;14.20;;;;;;;12.37;96.16;101076.41;103854;1309;24346;-61
2024/02/16 08:57:10;;;;;;;32.20;16.10;;;;;;;12.67;94.51;101076.77;103868;1295;22578;-61
2024/02/16 08:59:38;;;;;;;74.60;17.40;;;;;;;12.81;91.61;101074.09;103871;1308;22566;-59
2024/02/16 09:02:05;;;;;;;34.20;15.70;;;;;;;13.11;90.28;101075.27;103892;1309;22560;-61
2024/02/16 09:07:33;;;;;;;209.00;30.00;;;;;;;14.39;88.11;101079.05;103109;1301;22540;-61
2024/02/16 09:10:04;;;;;;;293.30;34.90;;;;;;;14.74;84.13;101073.33;103201;1316;25424;-61
2024/02/16 09:12:30;;;;;;;393.00;41.10;;;;;;;15.16;86.24;101068.87;103149;1310;24159;-57
2024/02/16 09:15:16;;;;;;;395.80;34.60;;;;;;;15.77;90.07;101060.15;103108;1305;24277;-60
2024/02/16 09:17:42;;;;;;;620.00;46.30;;;;;;;16.36;83.65;101059.14;102615;1321;22816;-60
2024/02/16 09:20:11;;;;;;;659.30;47.10;;;;;;;16.74;85.92;101060.14;102660;1310;24306;-60
2024/02/16 09:22:41;;;;;;;887.30;55.10;;;;;;;17.12;77.78;101058.77;102629;1322;23111;-60
2024/02/16 09:25:17;;;;;;;386.50;35.30;;;;;;;17.13;76.53;101054.94;102818;1318;22599;-58
2024/02/16 09:27:47;;;;;;;913.50;65.10;;;;;;;17.62;85.00;101053.40;102446;1306;24259;-58
2024/02/16 09:30:13;;;;;;;378.70;38.30;;;;;;;18.06;78.93;101056.59;102587;1316;26634;-58
2024/02/16 09:32:41;;;;;;;369.70;38.20;;;;;;;17.81;79.57;101052.35;103978;1312;22797;-59
2024/02/16 09:35:08;;;;;;;584.80;50.70;;;;;;;17.39;81.20;101047.67;104962;1316;22527;-58
2024/02/16 09:37:34;;;;;;;357.30;33.90;;;;;;;17.56;82.55;101052.09;102639;1314;25590;-59
2024/02/16 09:40:00;;;;;;;399.90;38.40;;;;;;;18.09;84.45;101050.88;102566;1319;22808;-60
2024/02/16 09:42:28;;;;;;;752.20;56.70;;;;;;;18.44;83.43;101044.36;102683;1322;22726;-57
2024/02/16 09:44:54;;;;;;;342.10;34.20;;;;;;;18.34;77.49;101040.93;102886;1316;22698;-61
2024/02/16 09:47:22;;;;;;;224.60;30.70;;;;;;;18.11;72.28;101047.80;103200;1298;23332;-60
2024/02/16 09:49:48;;;;;;;253.90;31.80;;;;;;;17.67;74.23;101044.36;104007;1316;22757;-60
2024/02/16 09:52:17;;;;;;;133.20;20.20;;;;;;;17.56;74.95;101042.16;103281;1316;22738;-58
2024/02/16 09:54:43;;;;;;;258.30;32.80;;;;;;;17.75;72.67;101038.27;103376;1305;22614;-60
2024/02/16 09:57:08;;;;;;;180.00;24.80;;;;;;;17.96;74.47;101038.16;103909;1292;22575;-61
2024/02/16 09:59:34;;;;;;;197.50;24.20;;;;;;;17.94;68.97;101036.30;103901;1309;23956;-60
2024/02/16 10:02:02;;;;;;;382.60;33.90;;;;;;;18.01;69.67;101038.30;103700;1310;22589;-60
2024/02/16 10:04:28;;;;;;;275.60;33.50;;;;;;;18.03;70.36;101031.41;103797;1309;22561;-60
2024/02/16 10:06:54;;;;;;;538.40;40.40;;;;;;;17.71;66.16;101030.75;103857;1296;26126;-60
2024/02/16 10:09:24;;;;;;;324.50;30.70;;;;;;;17.75;69.25;101025.72;103598;1298;25349;-60
2024/02/16 10:11:50;;;;;;;380.80;38.20;;;;;;;18.17;71.18;101026.83;104873;1310;25372;-60
2024/02/16 10:14:15;;;;;;;548.30;44.00;;;;;;;18.25;69.44;101025.61;103712;1310;22589;-60
2024/02/16 10:16:41;;;;;;;428.50;41.60;;;;;;;18.27;66.29;101019.94;103829;1290;25478;-58
2024/02/16 10:19:12;;;;;;;271.20;33.20;;;;;;;18.25;70.86;101020.91;103670;1310;27693;-60
2024/02/16 10:21:45;;;;;;;295.40;34.50;;;;;;;17.99;69.99;101020.22;103865;1301;22582;-60
2024/02/16 10:24:14;;;;;;;351.90;36.20;;;;;;;17.97;70.95;101020.50;103867;1310;23003;-59
2024/02/16 10:26:40;;;;;;;104.90;19.90;;;;;;;17.87;65.64;101016.34;103864;1310;24273;-59
2024/02/16 10:29:11;;;;;;;575.00;50.60;;;;;;;17.84;66.02;101015.09;103466;1291;430014;-61
2024/02/16 10:31:37;;;;;;;180.80;24.00;;;;;;;17.65;67.49;101011.98;103794;1309;22581;-58
2024/02/16 10:34:09;;;;;;;68.60;17.00;;;;;;;17.96;69.65;101008.48;103862;1310;25350;-59
2024/02/16 10:36:36;;;;;;;257.90;32.40;;;;;;;18.17;65.77;101001.68;103573;1310;22572;-60
2024/02/16 10:39:46;;;;;;;143.30;25.10;;;;;;;17.93;64.45;101005.12;103828;1289;23461;-59
2024/02/16 10:41:52;;;;;;;276.80;30.10;;;;;;;17.71;66.23;101002.34;103728;1295;23047;-60
2024/02/16 10:44:18;;;;;;;302.80;30.00;;;;;;;17.48;66.79;101000.10;103789;1304;24444;-59
2024/02/16 10:46:44;;;;;;;460.80;41.40;;;;;;;17.80;66.71;100998.48;103811;1310;25334;-60
2024/02/16 10:49:30;;;;;;;288.70;30.50;;;;;;;17.98;65.03;100996.91;103792;1302;23089;-60
2024/02/16 10:51:58;;;;;;;440.10;34.50;;;;;;;18.29;66.50;100990.69;103913;1310;22558;-60
2024/02/16 10:54:29;;;;;;;540.40;44.30;;;;;;;18.68;65.79;100988.88;103682;1310;25655;-58
2024/02/16 10:56:58;;;;;;;234.40;31.80;;;;;;;18.85;63.18;100983.08;105827;1310;22608;-57
2024/02/16 10:59:25;;;;;;;108.20;22.70;;;;;;;19.06;64.73;100984.91;103848;1291;22558;-60
2024/02/16 11:02:03;;;;;;;501.10;49.30;;;;;;;18.89;56.83;100982.88;103672;1310;25574;-61
2024/02/16 11:04:39;;;;;;;532.30;46.50;;;;;;;18.90;60.96;100976.70;103791;1305;24449;-61